createdAt,value
2019-06-01T00:01:34.541Z,7.30
2019-06-01T00:04:05.674Z,7.60
2019-06-01T00:06:36.198Z,7.87
2019-06-01T00:09:07.841Z,8.10
2019-06-01T00:11:39.190Z,7.78
2019-06-01T00:14:11.847Z,8.20
2019-06-01T00:16:43.710Z,7.95
2019-06-01T00:19:15.298Z,7.85
2019-06-01T00:21:45.893Z,7.10
2019-06-01T00:24:17.742Z,5.28
2019-06-01T00:26:49.802Z,6.55
2019-06-01T00:29:20.613Z,6.92
2019-06-01T00:31:52.105Z,6.72
2019-06-01T00:34:22.890Z,6.17
2019-06-01T00:36:53.829Z,5.50
2019-06-01T00:39:24.458Z,6.50
2019-06-01T00:41:55.226Z,6.37
2019-06-01T00:44:25.970Z,6.75
2019-06-01T00:46:56.668Z,7.03
2019-06-01T00:49:27.317Z,6.58
2019-06-01T00:51:58.077Z,4.80
2019-06-01T00:54:28.757Z,8.08
2019-06-01T00:56:59.535Z,7.00
2019-06-01T00:59:30.141Z,7.10
2019-06-01T01:02:00.750Z,6.92
2019-06-01T01:04:31.718Z,6.22
2019-06-01T01:07:03.438Z,6.40
2019-06-01T01:09:34.139Z,5.95
2019-06-01T01:12:04.875Z,5.90
2019-06-01T01:14:35.693Z,6.33
2019-06-01T01:17:06.278Z,5.87
2019-06-01T01:19:37.322Z,6.50
2019-06-01T01:22:07.979Z,6.60
2019-06-01T01:24:38.606Z,6.55
2019-06-01T01:27:09.479Z,7.03
2019-06-01T01:29:40.424Z,7.40
2019-06-01T01:32:11.111Z,7.90
2019-06-01T01:34:41.737Z,7.03
2019-06-01T01:37:12.721Z,6.95
2019-06-01T01:39:43.314Z,7.22
2019-06-01T01:42:15.155Z,7.15
2019-06-01T01:44:45.781Z,7.45
2019-06-01T01:47:16.690Z,7.10
2019-06-01T01:49:47.327Z,7.03
2019-06-01T01:52:18.014Z,7.25
2019-06-01T01:54:49.000Z,6.83
2019-06-01T01:57:19.534Z,5.83
2019-06-01T01:59:51.207Z,6.12
2019-06-01T02:02:21.947Z,4.22
2019-06-01T02:04:53.733Z,5.92
2019-06-01T02:07:24.734Z,5.45
2019-06-01T02:09:55.342Z,6.08
2019-06-01T02:12:25.859Z,6.42
2019-06-01T02:14:57.677Z,4.87
2019-06-01T02:17:28.585Z,5.83
2019-06-01T02:20:00.190Z,5.72
2019-06-01T02:22:31.005Z,6.20
2019-06-01T02:25:02.147Z,6.33
2019-06-01T02:27:32.915Z,7.05
2019-06-01T02:30:05.534Z,6.28
2019-06-01T02:32:36.587Z,6.75
2019-06-01T02:35:07.361Z,6.33
2019-06-01T02:37:38.074Z,6.10
2019-06-01T02:40:10.743Z,6.35
2019-06-01T02:42:41.429Z,5.60
2019-06-01T02:45:13.472Z,5.40
2019-06-01T02:47:44.125Z,6.15
2019-06-01T02:50:14.800Z,6.45
2019-06-01T02:52:45.403Z,5.62
2019-06-01T02:55:18.336Z,5.72
2019-06-01T02:57:48.903Z,5.92
2019-06-01T03:00:25.009Z,5.97
2019-06-01T03:02:56.578Z,3.90
2019-06-01T03:05:27.404Z,5.45
2019-06-01T03:07:59.364Z,5.40
2019-06-01T03:10:30.398Z,4.92
2019-06-01T03:13:02.579Z,5.33
2019-06-01T03:15:34.250Z,5.30
2019-06-01T03:18:05.717Z,5.00
2019-06-01T03:20:38.640Z,5.15
2019-06-01T03:23:12.091Z,5.50
2019-06-01T03:25:44.925Z,5.30
2019-06-01T03:28:18.152Z,5.67
2019-06-01T03:30:48.743Z,6.15
2019-06-01T03:33:19.732Z,5.45
2019-06-01T03:35:50.442Z,5.58
2019-06-01T03:38:21.195Z,5.67
2019-06-01T03:40:51.889Z,6.03
2019-06-01T03:43:22.906Z,5.15
2019-06-01T03:45:53.504Z,4.62
2019-06-01T03:48:24.292Z,5.62
2019-06-01T03:50:54.891Z,6.05
2019-06-01T03:53:25.854Z,5.72
2019-06-01T03:55:56.509Z,5.55
2019-06-01T03:58:27.263Z,5.37
2019-06-01T04:00:57.961Z,5.47
2019-06-01T04:03:28.755Z,5.37
2019-06-01T04:05:59.434Z,5.45
2019-06-01T04:08:30.126Z,5.30
2019-06-01T04:11:01.387Z,5.50
2019-06-01T04:13:32.045Z,5.45
2019-06-01T04:16:03.656Z,5.42
2019-06-01T04:18:34.647Z,4.65
2019-06-01T04:21:06.028Z,4.58
2019-06-01T04:23:37.143Z,5.12
2019-06-01T04:26:08.092Z,4.37
2019-06-01T04:28:38.715Z,4.60
2019-06-01T04:31:10.722Z,4.70
2019-06-01T04:33:41.589Z,4.80
2019-06-01T04:36:13.102Z,4.72
2019-06-01T04:38:44.007Z,4.30
2019-06-01T04:41:15.612Z,4.58
2019-06-01T04:43:46.289Z,4.92
2019-06-01T04:46:16.987Z,5.10
2019-06-01T04:48:47.734Z,4.62
2019-06-01T04:51:18.367Z,4.30
2019-06-01T04:53:49.264Z,4.65
2019-06-01T04:56:19.877Z,5.00
2019-06-01T04:58:50.722Z,4.72
2019-06-01T05:01:21.354Z,4.80
2019-06-01T05:03:52.043Z,5.53
2019-06-01T05:06:22.710Z,5.78
2019-06-01T05:08:53.495Z,5.35
2019-06-01T05:11:24.125Z,5.15
2019-06-01T05:13:54.659Z,5.10
2019-06-01T05:16:26.383Z,5.80
2019-06-01T05:18:57.007Z,6.00
2019-06-01T05:21:27.757Z,5.70
2019-06-01T05:23:58.472Z,6.37
2019-06-01T05:26:29.433Z,6.17
2019-06-01T05:28:59.950Z,6.05
2019-06-01T05:31:30.630Z,5.75
2019-06-01T05:34:01.228Z,5.65
2019-06-01T05:36:32.056Z,5.62
2019-06-01T05:39:02.692Z,5.75
2019-06-01T05:41:33.342Z,6.12
2019-06-01T05:44:04.209Z,6.60
2019-06-01T05:46:34.778Z,6.12
2019-06-01T05:49:05.557Z,5.67
2019-06-01T05:51:36.313Z,6.10
2019-06-01T05:54:07.018Z,6.12
2019-06-01T05:56:37.598Z,5.83
2019-06-01T05:59:08.223Z,6.72
2019-06-01T06:01:38.922Z,6.60
2019-06-01T06:04:09.620Z,6.55
2019-06-01T06:06:40.283Z,5.62
2019-06-01T06:09:11.524Z,5.20
2019-06-01T06:11:42.443Z,6.05
2019-06-01T06:14:13.386Z,5.33
2019-06-01T06:16:44.213Z,5.40
2019-06-01T06:19:17.820Z,5.65
2019-06-01T06:21:47.129Z,4.62
2019-06-01T06:24:18.530Z,4.28
2019-06-01T06:26:49.237Z,4.50
2019-06-01T06:29:20.895Z,4.85
2019-06-01T06:31:51.945Z,3.90
2019-06-01T06:34:23.621Z,2.85
2019-06-01T06:36:54.359Z,2.30
2019-06-01T06:39:25.115Z,2.45
2019-06-01T06:41:55.733Z,2.10
2019-06-01T06:44:26.341Z,2.50
2019-06-01T06:46:57.052Z,2.52
2019-06-01T06:49:27.730Z,3.00
2019-06-01T06:51:58.761Z,2.33
2019-06-01T06:54:29.431Z,2.22
2019-06-01T06:57:00.331Z,2.02
2019-06-01T06:59:31.178Z,1.70
2019-06-01T07:02:01.946Z,1.70
2019-06-01T07:04:32.559Z,1.62
2019-06-01T07:07:03.086Z,1.80
2019-06-01T07:09:33.711Z,1.55
2019-06-01T07:12:04.851Z,1.77
2019-06-01T07:14:35.771Z,1.55
2019-06-01T07:17:06.534Z,1.42
2019-06-01T07:19:37.298Z,1.42
2019-06-01T07:22:07.884Z,1.25
2019-06-01T07:24:38.507Z,1.60
2019-06-01T07:27:10.610Z,1.50
2019-06-01T07:29:41.323Z,1.45
2019-06-01T07:32:11.994Z,1.30
2019-06-01T07:34:43.093Z,1.70
2019-06-01T07:37:13.835Z,1.40
2019-06-01T07:39:44.790Z,1.37
2019-06-01T07:42:15.521Z,1.40
2019-06-01T07:44:46.143Z,1.32
2019-06-01T07:47:16.773Z,1.15
2019-06-01T07:49:47.632Z,1.30
2019-06-01T07:52:18.388Z,1.52
2019-06-01T07:54:50.147Z,1.40
2019-06-01T07:57:21.627Z,1.40
2019-06-01T07:59:52.362Z,1.32
2019-06-01T08:02:25.851Z,1.47
2019-06-01T08:04:56.362Z,1.55
2019-06-01T08:07:27.729Z,1.40
2019-06-01T08:09:58.393Z,1.30
2019-06-01T08:12:29.703Z,1.50
2019-06-01T08:15:01.787Z,1.40
2019-06-01T08:17:32.710Z,1.50
2019-06-01T08:20:03.768Z,1.20
2019-06-01T08:22:34.606Z,1.40
2019-06-01T08:25:06.261Z,1.40
2019-06-01T08:27:37.176Z,1.27
2019-06-01T08:30:08.626Z,1.07
2019-06-01T08:32:39.323Z,1.20
2019-06-01T08:35:10.256Z,1.42
2019-06-01T08:37:41.218Z,1.20
2019-06-01T08:40:12.470Z,1.60
2019-06-01T08:42:43.170Z,1.87
2019-06-01T08:45:14.087Z,1.47
2019-06-01T08:47:44.791Z,1.60
2019-06-01T08:50:15.538Z,1.67
2019-06-01T08:52:47.316Z,1.80
2019-06-01T08:55:18.096Z,1.60
2019-06-01T08:57:49.942Z,1.77
2019-06-01T09:00:35.134Z,1.80
2019-06-01T09:03:05.887Z,1.50
2019-06-01T09:05:36.657Z,1.67
2019-06-01T09:08:28.824Z,1.30
2019-06-01T09:10:59.551Z,1.47
2019-06-01T09:13:31.193Z,1.30
2019-06-01T09:16:02.037Z,1.70
2019-06-01T09:18:33.687Z,1.70
2019-06-01T09:21:04.473Z,1.65
2019-06-01T09:23:36.987Z,1.45
2019-06-01T09:26:07.390Z,1.85
2019-06-01T09:28:38.193Z,1.60
2019-06-01T09:31:08.910Z,1.57
2019-06-01T09:33:39.910Z,2.10
2019-06-01T09:36:10.675Z,1.60
2019-06-01T09:38:41.495Z,1.75
2019-06-01T09:41:12.271Z,1.50
2019-06-01T09:43:42.895Z,1.80
2019-06-01T09:46:13.467Z,1.62
2019-06-01T09:48:44.167Z,1.77
2019-06-01T09:51:15.130Z,1.60
2019-06-01T09:53:45.846Z,1.42
2019-06-01T09:56:16.665Z,1.60
2019-06-01T09:58:47.363Z,1.70
2019-06-01T10:01:18.112Z,1.52
2019-06-01T10:03:48.977Z,1.30
2019-06-01T10:06:19.659Z,1.20
2019-06-01T10:08:50.384Z,1.37
2019-06-01T10:11:21.256Z,1.35
2019-06-01T10:13:51.929Z,1.50
2019-06-01T10:16:22.738Z,1.30
2019-06-01T10:18:53.262Z,1.00
2019-06-01T10:21:24.047Z,1.35
2019-06-01T10:23:54.740Z,1.30
2019-06-01T10:26:25.415Z,1.10
2019-06-01T10:28:56.109Z,1.00
2019-06-01T10:31:26.798Z,1.37
2019-06-01T10:33:57.963Z,1.10
2019-06-01T10:36:28.718Z,1.10
2019-06-01T10:38:59.489Z,1.32
2019-06-01T10:41:31.220Z,12.63
2019-06-01T10:44:01.923Z,1.20
2019-06-01T10:46:33.913Z,1.20
2019-06-01T10:49:04.994Z,1.25
2019-06-01T10:51:36.249Z,1.10
2019-06-01T10:54:07.384Z,1.20
2019-06-01T10:56:38.534Z,1.12
2019-06-01T10:59:09.156Z,1.12
2019-06-01T11:01:40.933Z,1.15
2019-06-01T11:04:11.698Z,0.95
2019-06-01T11:06:47.896Z,1.20
2019-06-01T11:09:15.454Z,1.30
2019-06-01T11:11:46.423Z,1.40
2019-06-01T11:14:17.061Z,1.40
2019-06-01T11:16:52.715Z,1.47
2019-06-01T11:19:19.946Z,1.50
2019-06-01T11:21:50.472Z,1.35
2019-06-01T11:24:21.231Z,1.27
2019-06-01T11:26:51.747Z,0.90
2019-06-01T11:29:22.817Z,1.70
2019-06-01T11:31:53.518Z,2.10
2019-06-01T11:34:24.243Z,1.80
2019-06-01T11:37:05.103Z,1.57
2019-06-01T11:39:27.590Z,1.25
2019-06-01T11:41:58.235Z,1.12
2019-06-01T11:44:28.815Z,1.02
2019-06-01T11:46:59.526Z,1.22
2019-06-01T11:49:30.085Z,1.12
2019-06-01T11:52:00.999Z,1.42
2019-06-01T11:54:31.755Z,1.40
2019-06-01T11:57:02.386Z,1.37
2019-06-01T11:59:33.239Z,1.22
2019-06-01T12:02:03.919Z,1.32
2019-06-01T12:04:35.746Z,1.30
2019-06-01T12:07:17.071Z,1.35
2019-06-01T12:09:39.921Z,1.40
2019-06-01T12:12:11.594Z,1.40
2019-06-01T12:14:42.669Z,1.30
2019-06-01T12:17:14.321Z,1.20
2019-06-01T12:19:44.989Z,1.30
2019-06-01T12:22:15.503Z,1.50
2019-06-01T12:24:47.205Z,1.52
2019-06-01T12:27:18.123Z,1.40
2019-06-01T12:29:52.452Z,1.50
2019-06-01T12:32:21.339Z,1.77
2019-06-01T12:34:51.959Z,1.50
2019-06-01T12:37:39.906Z,1.47
2019-06-01T12:39:54.662Z,1.12
2019-06-01T12:42:25.525Z,1.30
2019-06-01T12:44:56.187Z,1.40
2019-06-01T12:47:27.146Z,1.37
2019-06-01T12:49:57.887Z,1.60
2019-06-01T12:52:28.401Z,1.60
2019-06-01T12:54:59.010Z,1.60
2019-06-01T12:57:29.525Z,1.85
2019-06-01T13:00:00.463Z,1.70
2019-06-01T13:02:31.102Z,1.70
2019-06-01T13:05:02.939Z,1.60
2019-06-01T13:07:33.678Z,1.30
2019-06-01T13:10:06.447Z,1.70
2019-06-01T13:12:37.217Z,2.00
2019-06-01T13:15:08.463Z,1.57
2019-06-01T13:17:39.238Z,1.80
2019-06-01T13:20:10.328Z,1.98
2019-06-01T13:22:41.297Z,1.70
2019-06-01T13:25:14.816Z,1.92
2019-06-01T13:27:46.447Z,1.82
2019-06-01T13:30:17.316Z,1.70
2019-06-01T13:32:48.582Z,1.72
2019-06-01T13:35:19.459Z,1.80
2019-06-01T13:37:50.967Z,2.00
2019-06-01T13:40:22.362Z,1.80
2019-06-01T13:42:53.261Z,1.70
2019-06-01T13:45:24.049Z,1.57
2019-06-01T13:47:54.563Z,1.80
2019-06-01T13:50:25.237Z,1.30
2019-06-01T13:52:56.130Z,1.77
2019-06-01T13:55:27.694Z,1.40
2019-06-01T13:57:58.370Z,1.60
2019-06-01T14:00:30.620Z,1.40
2019-06-01T14:03:01.641Z,1.47
2019-06-01T14:05:32.603Z,1.80
2019-06-01T14:08:03.506Z,1.50
2019-06-01T14:10:34.150Z,1.50
2019-06-01T14:13:05.460Z,1.32
2019-06-01T14:15:36.511Z,1.52
2019-06-01T14:18:08.077Z,1.70
2019-06-01T14:20:38.725Z,1.50
2019-06-01T14:23:09.424Z,1.62
2019-06-01T14:25:40.062Z,1.60
2019-06-01T14:28:11.127Z,1.77
2019-06-01T14:30:41.707Z,1.50
2019-06-01T14:33:12.220Z,1.50
2019-06-01T14:35:42.978Z,1.50
2019-06-01T14:38:13.487Z,1.80
2019-06-01T14:40:44.104Z,1.92
2019-06-01T14:43:14.846Z,1.77
2019-06-01T14:45:47.210Z,1.80
2019-06-01T14:48:18.058Z,1.90
2019-06-01T14:50:49.541Z,2.30
2019-06-01T14:53:20.155Z,2.77
2019-06-01T14:55:51.732Z,2.10
2019-06-01T14:58:23.411Z,1.80
2019-06-01T15:00:54.578Z,2.20
2019-06-01T15:03:25.471Z,2.00
2019-06-01T15:05:56.528Z,1.90
2019-06-01T15:08:27.395Z,1.70
2019-06-01T15:10:58.880Z,1.82
2019-06-01T15:13:29.409Z,1.90
2019-06-01T15:16:00.066Z,1.72
2019-06-01T15:18:30.807Z,4.55
2019-06-01T15:21:02.196Z,2.20
2019-06-01T15:23:32.969Z,1.70
2019-06-01T15:26:03.569Z,1.85
2019-06-01T15:28:34.188Z,1.90
2019-06-01T15:31:04.845Z,1.90
2019-06-01T15:33:35.351Z,1.80
2019-06-01T15:36:06.121Z,1.75
2019-06-01T15:38:36.715Z,1.92
2019-06-01T15:41:07.301Z,1.90
2019-06-01T15:43:38.008Z,1.85
2019-06-01T15:46:08.638Z,1.90
2019-06-01T15:48:39.129Z,2.00
2019-06-01T15:51:09.791Z,1.85
2019-06-01T15:53:40.614Z,2.00
2019-06-01T15:56:11.318Z,2.10
2019-06-01T15:58:52.365Z,2.27
2019-06-01T16:01:14.424Z,1.82
2019-06-01T16:03:45.038Z,2.15
2019-06-01T16:06:15.690Z,1.98
2019-06-01T16:08:46.446Z,1.87
2019-06-01T16:11:17.289Z,1.60
2019-06-01T16:13:47.990Z,2.17
2019-06-01T16:16:18.877Z,1.67
2019-06-01T16:18:49.907Z,1.82
2019-06-01T16:21:20.611Z,1.87
2019-06-01T16:23:51.463Z,1.65
2019-06-01T16:26:22.162Z,2.10
2019-06-01T16:28:54.368Z,2.30
2019-06-01T16:31:25.223Z,1.65
2019-06-01T16:33:56.569Z,1.65
2019-06-01T16:36:28.652Z,1.92
2019-06-01T16:39:02.840Z,1.90
2019-06-01T16:41:33.330Z,2.00
2019-06-01T16:44:04.238Z,1.98
2019-06-01T16:46:35.025Z,1.72
2019-06-01T16:49:06.746Z,1.50
2019-06-01T16:51:56.577Z,1.50
2019-06-01T16:54:27.599Z,1.62
2019-06-01T16:56:58.366Z,1.60
2019-06-01T16:59:29.044Z,1.62
2019-06-01T17:02:00.965Z,1.70
2019-06-01T17:04:31.717Z,1.60
2019-06-01T17:07:05.656Z,1.60
2019-06-01T17:09:34.825Z,1.55
2019-06-01T17:12:05.588Z,1.60
2019-06-01T17:14:36.330Z,1.72
2019-06-01T17:17:07.465Z,1.80
2019-06-01T17:19:38.110Z,1.70
2019-06-01T17:22:08.773Z,1.70
2019-06-01T17:24:39.528Z,1.60
2019-06-01T17:27:10.504Z,1.50
2019-06-01T17:29:41.342Z,1.87
2019-06-01T17:32:23.510Z,1.90
2019-06-01T17:34:44.675Z,1.95
2019-06-01T17:37:15.304Z,1.67
2019-06-01T17:39:45.795Z,1.67
2019-06-01T17:42:16.558Z,1.70
2019-06-01T17:44:47.231Z,2.00
2019-06-01T17:47:18.026Z,1.92
2019-06-01T17:49:48.742Z,1.90
2019-06-01T17:52:19.511Z,1.70
2019-06-01T17:54:50.105Z,1.85
2019-06-01T17:57:20.802Z,1.60
2019-06-01T17:59:51.480Z,1.80
2019-06-01T18:02:22.129Z,1.67
2019-06-01T18:04:52.891Z,1.85
2019-06-01T18:07:23.745Z,2.00
2019-06-01T18:09:54.483Z,2.02
2019-06-01T18:12:25.493Z,2.20
2019-06-01T18:14:56.010Z,2.10
2019-06-01T18:17:26.938Z,2.10
2019-06-01T18:19:57.574Z,2.20
2019-06-01T18:22:28.512Z,2.58
2019-06-01T18:25:00.170Z,2.37
2019-06-01T18:27:30.832Z,2.40
2019-06-01T18:30:02.783Z,2.70
2019-06-01T18:32:33.854Z,2.37
2019-06-01T18:35:07.129Z,2.70
2019-06-01T18:37:40.383Z,2.35
2019-06-01T18:40:11.871Z,2.72
2019-06-01T18:42:44.168Z,2.92
2019-06-01T18:45:15.810Z,2.83
2019-06-01T18:47:46.621Z,3.20
2019-06-01T18:50:18.281Z,2.83
2019-06-01T18:52:49.029Z,3.10
2019-06-01T18:55:20.098Z,2.98
2019-06-01T18:57:53.740Z,3.10
2019-06-01T19:00:24.504Z,3.27
2019-06-01T19:02:55.343Z,3.20
2019-06-01T19:05:26.246Z,3.47
2019-06-01T19:07:56.993Z,2.90
2019-06-01T19:10:27.830Z,3.30
2019-06-01T19:13:02.280Z,3.15
2019-06-01T19:15:33.121Z,3.30
2019-06-01T19:18:03.940Z,4.10
2019-06-01T19:20:34.654Z,3.70
2019-06-01T19:23:06.522Z,3.67
2019-06-01T19:25:37.522Z,4.03
2019-06-01T19:28:08.836Z,4.00
2019-06-01T19:30:43.835Z,3.65
2019-06-01T19:33:17.871Z,3.80
2019-06-01T19:35:48.638Z,3.95
2019-06-01T19:38:19.906Z,3.98
2019-06-01T19:40:50.617Z,3.95
2019-06-01T19:43:21.418Z,3.45
2019-06-01T19:45:52.233Z,4.00
2019-06-01T19:48:22.892Z,4.40
2019-06-01T19:50:53.454Z,3.50
2019-06-01T19:53:24.431Z,3.70
2019-06-01T19:55:54.990Z,3.87
2019-06-01T19:58:25.895Z,4.17
2019-06-01T20:00:56.694Z,4.00
2019-06-01T20:03:27.542Z,4.35
2019-06-01T20:05:58.109Z,4.90
2019-06-01T20:08:28.634Z,4.20
2019-06-01T20:10:59.331Z,4.80
2019-06-01T20:13:29.992Z,4.78
2019-06-01T20:16:00.741Z,4.90
2019-06-01T20:18:31.296Z,4.87
2019-06-01T20:21:01.859Z,5.40
2019-06-01T20:23:32.651Z,4.90
2019-06-01T20:26:03.339Z,4.97
2019-06-01T20:28:34.112Z,5.17
2019-06-01T20:31:05.128Z,5.25
2019-06-01T20:33:35.822Z,5.45
2019-06-01T20:36:06.499Z,5.47
2019-06-01T20:38:37.125Z,5.45
2019-06-01T20:41:07.790Z,5.17
2019-06-01T20:43:38.759Z,5.92
2019-06-01T20:46:09.407Z,7.95
2019-06-01T20:48:40.146Z,8.60
2019-06-01T20:51:10.933Z,10.10
2019-06-01T20:53:41.446Z,8.80
2019-06-01T20:56:13.337Z,8.63
2019-06-01T20:58:44.142Z,9.58
2019-06-01T21:01:15.579Z,8.78
2019-06-01T21:03:46.217Z,6.85
2019-06-01T21:06:18.483Z,7.30
2019-06-01T21:08:49.299Z,7.25
2019-06-01T21:11:20.117Z,7.72
2019-06-01T21:13:50.872Z,7.42
2019-06-01T21:16:22.345Z,6.85
2019-06-01T21:18:52.959Z,7.85
2019-06-01T21:21:24.916Z,8.65
2019-06-01T21:23:55.718Z,8.68
2019-06-01T21:26:26.387Z,8.20
2019-06-01T21:28:56.895Z,9.43
2019-06-01T21:31:27.600Z,9.75
2019-06-01T21:33:58.512Z,9.70
2019-06-01T21:36:29.254Z,9.28
2019-06-01T21:38:59.913Z,9.33
2019-06-01T21:41:30.618Z,9.93
2019-06-01T21:44:01.286Z,8.98
2019-06-01T21:46:31.819Z,10.53
2019-06-01T21:49:02.447Z,11.40
2019-06-01T21:51:33.104Z,12.15
2019-06-01T21:54:03.990Z,11.40
2019-06-01T21:56:34.650Z,11.25
2019-06-01T21:59:05.249Z,11.45
2019-06-01T22:01:35.926Z,10.53
2019-06-01T22:04:06.663Z,11.12
2019-06-01T22:06:37.486Z,9.78
2019-06-01T22:09:08.268Z,10.70
2019-06-01T22:11:39.613Z,9.73
2019-06-01T22:14:10.134Z,8.88
2019-06-01T22:16:40.706Z,7.78
2019-06-01T22:19:11.597Z,11.60
2019-06-01T22:21:42.107Z,12.50
2019-06-01T22:24:12.826Z,11.63
2019-06-01T22:26:43.455Z,10.28
2019-06-01T22:29:14.471Z,11.53
2019-06-01T22:31:45.042Z,9.90
2019-06-01T22:34:15.638Z,9.23
2019-06-01T22:36:46.333Z,8.88
2019-06-01T22:39:19.254Z,8.28
2019-06-01T22:41:51.098Z,8.98
2019-06-01T22:44:22.132Z,8.75
2019-06-01T22:46:52.879Z,10.50
2019-06-01T22:49:24.707Z,9.78
2019-06-01T22:51:55.534Z,9.85
2019-06-01T22:54:27.214Z,8.83
2019-06-01T22:56:58.187Z,8.95
2019-06-01T22:59:28.866Z,8.68
2019-06-01T23:01:59.539Z,9.50
2019-06-01T23:04:31.355Z,9.73
2019-06-01T23:07:02.190Z,9.38
2019-06-01T23:09:32.701Z,8.93
2019-06-01T23:12:03.433Z,8.15
2019-06-01T23:14:33.930Z,9.58
2019-06-01T23:17:04.727Z,8.60
2019-06-01T23:19:35.318Z,9.63
2019-06-01T23:22:06.100Z,9.70
2019-06-01T23:24:36.671Z,10.38
2019-06-01T23:27:07.385Z,10.35
2019-06-01T23:29:38.082Z,10.95
2019-06-01T23:32:08.736Z,10.30
2019-06-01T23:34:39.423Z,9.60
2019-06-01T23:37:10.133Z,10.30
2019-06-01T23:39:40.802Z,10.35
2019-06-01T23:42:11.592Z,11.97
2019-06-01T23:44:42.290Z,11.70
2019-06-01T23:47:12.896Z,11.40
2019-06-01T23:49:43.487Z,11.45
2019-06-01T23:52:14.202Z,10.90
2019-06-01T23:54:44.798Z,11.53
2019-06-01T23:57:15.534Z,11.15
2019-06-01T23:59:46.489Z,11.78
